Terminal Aerodrome Forecast
Issued by NWS

Home | Current Version | Previous Version | Text Only | Print | Product List | Glossary On
Versions: 1 2 3 4 5 6 7 8 9 10 11 12 13 14 15 16 17
000
FTUS45 KFGZ 241100
TAFGCN
TAF
KGCN 241136Z 2412/2512 VRB03KT 6SM FU BKN100
      TEMPO 2412/2415 3SM FU
     FM241800 21010KT P6SM BKN090
     FM250200 VRB06KT P6SM BKN100 BKN200=

USA.gov is the U.S. government's official web portal to all federal, state and local government web resources and services.